TimeEST,TemperatureF,Dew PointF,Humidity,Sea Level PressureIn,VisibilityMPH,Wind Direction,Wind SpeedMPH,Gust SpeedMPH,PrecipitationIn,Events,Conditions,WindDirDegrees,DateUTC
12:53 AM,62.1,37.9,41,29.86,10.0,South,18.4,24.2,N/A,,Overcast,190,2012-11-12 05:53:00
1:53 AM,61.0,39.9,46,29.85,10.0,South,16.1,23.0,0.00,,Overcast,190,2012-11-12 06:53:00
2:53 AM,62.1,41.0,46,29.85,10.0,SSW,16.1,26.5,0.00,,Overcast,200,2012-11-12 07:53:00
3:53 AM,54.0,48.9,83,29.87,10.0,WSW,15.0,-,0.00,Rain,Light Rain,240,2012-11-12 08:53:00
4:53 AM,53.1,50.0,89,29.86,7.0,SSW,9.2,-,0.05,Rain,Light Rain,200,2012-11-12 09:53:00
5:53 AM,53.1,50.0,89,29.87,9.0,SSW,10.4,-,0.07,Rain,Light Rain,210,2012-11-12 10:53:00
6:00 AM,53.6,50.0,88,29.87,10.0,SSW,10.4,-,0.00,Rain,Light Rain,210,2012-11-12 11:00:00
6:19 AM,53.6,50.0,88,29.87,9.0,SSW,11.5,-,0.01,Rain,Light Rain,210,2012-11-12 11:19:00
6:53 AM,48.0,44.1,86,29.89,10.0,West,21.9,31.1,0.05,Rain,Light Rain,260,2012-11-12 11:53:00
7:03 AM,48.2,44.6,87,29.90,10.0,West,18.4,27.6,0.00,Rain,Light Rain,260,2012-11-12 12:03:00
7:39 AM,46.4,42.8,87,29.90,10.0,WSW,19.6,28.8,0.01,Rain,Light Rain,250,2012-11-12 12:39:00
7:53 AM,46.0,41.0,83,29.90,10.0,WSW,15.0,24.2,0.01,Rain,Light Rain,250,2012-11-12 12:53:00
8:53 AM,45.0,41.0,86,29.92,10.0,WSW,12.7,19.6,0.01,Rain,Light Rain,240,2012-11-12 13:53:00
9:24 AM,44.6,39.2,81,29.91,10.0,WSW,11.5,20.7,0.00,Rain,Light Rain,240,2012-11-12 14:24:00
9:50 AM,44.6,39.2,81,29.92,10.0,WSW,13.8,-,0.00,Rain,Light Rain,240,2012-11-12 14:50:00
9:53 AM,44.1,39.0,82,29.92,10.0,WSW,12.7,-,0.00,,Overcast,250,2012-11-12 14:53:00
10:40 AM,42.8,37.4,81,29.94,9.0,WSW,18.4,-,0.00,Rain,Light Rain,250,2012-11-12 15:40:00
10:53 AM,42.1,37.0,82,29.96,10.0,West,19.6,27.6,0.00,Rain,Light Rain,260,2012-11-12 15:53:00
11:53 AM,41.0,36.0,82,29.96,10.0,West,16.1,-,0.01,,Overcast,260,2012-11-12 16:53:00
12:53 PM,41.0,33.1,73,29.96,10.0,WSW,20.7,27.6,N/A,,Overcast,240,2012-11-12 17:53:00
1:53 PM,37.9,28.9,70,29.98,10.0,WSW,23.0,29.9,N/A,,Overcast,250,2012-11-12 18:53:00
2:51 PM,37.4,26.6,65,29.99,10.0,WSW,20.7,27.6,N/A,,Mostly Cloudy,250,2012-11-12 19:51:00
2:53 PM,37.9,27.0,65,30.00,10.0,WSW,17.3,27.6,N/A,,Mostly Cloudy,250,2012-11-12 19:53:00
3:53 PM,37.0,26.1,65,30.02,10.0,West,18.4,25.3,N/A,,Overcast,260,2012-11-12 20:53:00
4:53 PM,36.0,23.0,59,30.05,10.0,West,17.3,23.0,N/A,,Overcast,270,2012-11-12 21:53:00
5:53 PM,35.1,21.9,59,30.08,10.0,WSW,20.7,35.7,N/A,,Overcast,250,2012-11-12 22:53:00
6:53 PM,34.0,21.9,61,30.12,10.0,West,19.6,31.1,N/A,,Overcast,260,2012-11-12 23:53:00
7:53 PM,34.0,21.9,61,30.14,10.0,West,21.9,27.6,N/A,,Overcast,260,2012-11-13 00:53:00
8:53 PM,33.1,23.0,66,30.15,10.0,WSW,18.4,25.3,N/A,,Overcast,250,2012-11-13 01:53:00
9:20 PM,33.8,24.8,70,30.14,9.0,WSW,15.0,27.6,0.00,,Overcast,250,2012-11-13 02:20:00
9:33 PM,33.8,24.8,70,30.15,10.0,WSW,15.0,21.9,0.00,,Overcast,250,2012-11-13 02:33:00
9:53 PM,33.1,24.1,70,30.17,10.0,WSW,15.0,27.6,0.00,,Overcast,250,2012-11-13 02:53:00
10:28 PM,32.0,24.8,75,30.18,2.0,West,24.2,29.9,0.00,Snow,Light Snow,270,2012-11-13 03:28:00
10:34 PM,30.2,24.8,80,30.18,1.8,West,21.9,29.9,0.00,Snow,Light Snow,260,2012-11-13 03:34:00
10:38 PM,30.2,24.8,80,30.18,3.0,West,17.3,27.6,0.00,Snow,Light Snow,260,2012-11-13 03:38:00
10:53 PM,30.9,25.0,79,30.22,10.0,West,13.8,23.0,0.00,,Overcast,270,2012-11-13 03:53:00
11:53 PM,30.9,21.0,67,30.25,10.0,West,12.7,-,N/A,,Overcast,260,2012-11-13 04:53:00